createdAt,value
2018-12-24T00:00:19.656Z,2.20
2018-12-24T00:01:19.643Z,1.90
2018-12-24T00:02:19.631Z,1.60
2018-12-24T00:03:19.657Z,2.50
2018-12-24T00:04:19.611Z,2.00
2018-12-24T00:05:19.601Z,1.40
2018-12-24T00:06:19.596Z,1.70
2018-12-24T00:07:19.581Z,1.50
2018-12-24T00:08:19.600Z,1.50
2018-12-24T00:09:19.579Z,0.90
2018-12-24T00:10:19.571Z,1.40
2018-12-24T00:11:19.534Z,2.60
2018-12-24T00:12:19.534Z,1.80
2018-12-24T00:13:19.518Z,1.50
2018-12-24T00:14:19.540Z,1.60
2018-12-24T00:15:19.488Z,1.30
2018-12-24T00:16:19.482Z,1.10
2018-12-24T00:17:19.467Z,0.90
2018-12-24T00:18:19.460Z,1.20
2018-12-24T00:19:19.505Z,1.40
2018-12-24T00:20:19.436Z,1.50
2018-12-24T00:21:19.423Z,1.80
2018-12-24T00:22:19.431Z,1.60
2018-12-24T00:23:19.402Z,1.60
2018-12-24T00:24:19.427Z,1.80
2018-12-24T00:25:19.379Z,1.60
2018-12-24T00:26:19.393Z,1.50
2018-12-24T00:27:19.360Z,1.50
2018-12-24T00:28:19.350Z,1.40
2018-12-24T00:29:19.360Z,2.10
2018-12-24T00:30:19.326Z,1.30
2018-12-24T00:31:19.315Z,1.20
2018-12-24T00:32:19.338Z,1.20
2018-12-24T00:33:19.291Z,1.40
2018-12-24T00:34:19.283Z,1.30
2018-12-24T00:35:19.292Z,1.20
2018-12-24T00:36:19.260Z,2.00
2018-12-24T00:37:19.247Z,1.80
2018-12-24T00:38:19.239Z,1.30
2018-12-24T00:39:19.229Z,1.30
2018-12-24T00:40:19.237Z,1.80
2018-12-24T00:41:19.228Z,2.10
2018-12-24T00:42:19.196Z,2.40
2018-12-24T00:43:19.185Z,2.00
2018-12-24T00:44:19.176Z,1.60
2018-12-24T00:45:19.182Z,2.20
2018-12-24T00:46:19.148Z,2.00
2018-12-24T00:47:19.143Z,2.20
2018-12-24T00:48:19.125Z,2.00
2018-12-24T00:49:19.153Z,2.00
2018-12-24T00:50:19.107Z,1.50
2018-12-24T00:51:19.091Z,2.00
2018-12-24T00:52:19.086Z,1.80
2018-12-24T00:53:19.089Z,2.80
2018-12-24T00:54:19.087Z,1.90
2018-12-24T00:55:19.054Z,1.60
2018-12-24T00:56:20.095Z,2.10
2018-12-24T00:57:19.030Z,2.70
2018-12-24T00:58:19.018Z,2.30
2018-12-24T00:59:19.014Z,2.10
2018-12-24T01:00:18.991Z,2.20
2018-12-24T01:01:19.015Z,2.80
2018-12-24T01:02:18.984Z,2.90
2018-12-24T01:03:18.982Z,2.70
2018-12-24T01:04:18.948Z,3.20
2018-12-24T01:05:18.961Z,4.30
2018-12-24T01:06:18.926Z,3.60
2018-12-24T01:07:18.941Z,3.30
2018-12-24T01:08:18.968Z,2.90
2018-12-24T01:09:18.907Z,2.30
2018-12-24T01:10:18.890Z,2.80
2018-12-24T01:11:18.915Z,2.80
2018-12-24T01:12:24.591Z,2.60
2018-12-24T01:13:19.854Z,2.80
2018-12-24T01:14:18.848Z,3.10
2018-12-24T01:15:18.826Z,1.90
2018-12-24T01:16:18.845Z,2.50
2018-12-24T01:17:18.813Z,1.80
2018-12-24T01:18:18.796Z,2.70
2018-12-24T01:19:18.782Z,2.30
2018-12-24T01:20:18.773Z,2.40
2018-12-24T01:21:18.800Z,1.50
2018-12-24T01:22:18.766Z,2.30
2018-12-24T01:23:18.739Z,2.20
2018-12-24T01:24:18.733Z,1.80
2018-12-24T01:25:18.715Z,2.70
2018-12-24T01:26:18.728Z,3.00
2018-12-24T01:27:18.700Z,2.20
2018-12-24T01:28:18.722Z,1.90
2018-12-24T01:29:18.673Z,2.60
2018-12-24T01:30:18.674Z,3.10
2018-12-24T01:31:18.678Z,2.80
2018-12-24T01:32:18.637Z,2.70
2018-12-24T01:33:18.638Z,3.60
2018-12-24T01:34:18.620Z,2.10
2018-12-24T01:35:18.665Z,2.20
2018-12-24T01:36:18.604Z,1.80
2018-12-24T01:37:18.583Z,2.40
2018-12-24T01:38:18.584Z,2.00
2018-12-24T01:39:18.574Z,3.20
2018-12-24T01:40:18.596Z,4.20
2018-12-24T01:41:18.541Z,2.50
2018-12-24T01:42:18.541Z,2.70
2018-12-24T01:43:18.541Z,1.90
2018-12-24T01:44:18.511Z,2.50
2018-12-24T01:45:18.497Z,2.50
2018-12-24T01:46:18.491Z,1.90
2018-12-24T01:47:18.499Z,2.40
2018-12-24T01:48:18.476Z,2.30
2018-12-24T01:49:18.460Z,2.40
2018-12-24T01:50:18.443Z,1.60
2018-12-24T01:51:18.875Z,2.10
2018-12-24T01:52:18.418Z,1.60
2018-12-24T01:53:18.406Z,2.40
2018-12-24T01:54:18.426Z,1.40
2018-12-24T01:55:18.387Z,1.20
2018-12-24T01:56:18.372Z,1.60
2018-12-24T01:57:18.360Z,1.40
2018-12-24T01:58:18.372Z,1.20
2018-12-24T01:59:18.344Z,1.20
2018-12-24T02:00:18.355Z,1.30
2018-12-24T02:01:18.326Z,1.40
2018-12-24T02:02:18.322Z,1.90
2018-12-24T02:03:18.299Z,1.70
2018-12-24T02:04:18.288Z,1.50
2018-12-24T02:05:18.323Z,1.50
2018-12-24T02:06:18.262Z,1.10
2018-12-24T02:07:18.254Z,1.50
2018-12-24T02:08:18.246Z,1.20
2018-12-24T02:09:18.240Z,1.40
2018-12-24T02:10:18.242Z,1.70
2018-12-24T02:11:18.213Z,2.30
2018-12-24T02:12:18.199Z,1.10
2018-12-24T02:13:18.218Z,1.40
2018-12-24T02:14:18.176Z,1.90
2018-12-24T02:15:18.179Z,1.20
2018-12-24T02:16:18.153Z,2.10
2018-12-24T02:17:18.140Z,2.30
2018-12-24T02:18:18.146Z,1.30
2018-12-24T02:19:18.234Z,1.80
2018-12-24T02:20:18.114Z,1.90
2018-12-24T02:21:18.098Z,1.50
2018-12-24T02:22:18.097Z,1.00
2018-12-24T02:23:18.076Z,1.40
2018-12-24T02:24:18.085Z,1.70
2018-12-24T02:25:18.051Z,1.60
2018-12-24T02:26:18.044Z,1.70
2018-12-24T02:27:18.031Z,1.20
2018-12-24T02:28:18.022Z,1.20
2018-12-24T02:29:18.033Z,1.40
2018-12-24T02:30:18.000Z,1.60
2018-12-24T02:31:18.009Z,1.30
2018-12-24T02:32:17.989Z,1.00
2018-12-24T02:33:18.016Z,1.00
2018-12-24T02:34:18.001Z,2.90
2018-12-24T02:35:17.944Z,1.60
2018-12-24T02:36:17.934Z,1.00
2018-12-24T02:37:17.921Z,2.30
2018-12-24T02:38:17.921Z,1.30
2018-12-24T02:39:17.937Z,2.20
2018-12-24T02:40:17.887Z,1.60
2018-12-24T02:41:17.873Z,2.30
2018-12-24T02:42:17.866Z,1.60
2018-12-24T02:43:17.855Z,2.30
2018-12-24T02:44:17.864Z,1.60
2018-12-24T02:45:17.838Z,1.80
2018-12-24T02:46:17.822Z,2.20
2018-12-24T02:47:17.814Z,2.20
2018-12-24T02:48:17.801Z,1.40
2018-12-24T02:49:17.831Z,1.30
2018-12-24T02:50:17.787Z,2.40
2018-12-24T02:51:17.776Z,1.10
2018-12-24T02:52:17.760Z,2.00
2018-12-24T02:53:17.746Z,1.50
2018-12-24T02:54:17.860Z,1.50
2018-12-24T02:55:17.731Z,1.10
2018-12-24T02:56:17.709Z,1.50
2018-12-24T02:57:17.704Z,2.00
2018-12-24T02:58:17.724Z,1.90
2018-12-24T02:59:17.708Z,1.60
2018-12-24T03:00:17.667Z,1.50
2018-12-24T03:01:17.698Z,1.80
2018-12-24T03:02:17.645Z,1.50
2018-12-24T03:03:17.653Z,1.80
2018-12-24T03:04:17.692Z,2.10
2018-12-24T03:05:17.613Z,2.00
2018-12-24T03:06:17.649Z,1.70
2018-12-24T03:07:17.612Z,1.70
2018-12-24T03:08:17.615Z,1.70
2018-12-24T03:09:17.569Z,1.80
2018-12-24T03:10:17.558Z,1.10
2018-12-24T03:11:17.569Z,1.70
2018-12-24T03:12:17.554Z,1.20
2018-12-24T03:13:17.541Z,1.70
2018-12-24T03:14:17.511Z,1.70
2018-12-24T03:15:17.550Z,1.10
2018-12-24T03:16:17.488Z,1.80
2018-12-24T03:17:17.496Z,3.10
2018-12-24T03:18:17.475Z,2.70
2018-12-24T03:19:17.471Z,2.10
2018-12-24T03:20:17.483Z,1.20
2018-12-24T03:21:17.441Z,1.70
2018-12-24T03:22:17.423Z,1.60
2018-12-24T03:23:17.435Z,1.50
2018-12-24T03:24:17.403Z,2.20
2018-12-24T03:25:17.390Z,1.70
2018-12-24T03:26:17.384Z,1.70
2018-12-24T03:27:17.374Z,1.70
2018-12-24T03:28:17.392Z,2.40
2018-12-24T03:29:17.358Z,2.40
2018-12-24T03:30:17.355Z,2.00
2018-12-24T03:31:17.446Z,2.80
2018-12-24T03:32:17.318Z,1.90
2018-12-24T03:33:17.363Z,2.10
2018-12-24T03:34:17.290Z,1.90
2018-12-24T03:35:17.281Z,1.90
2018-12-24T03:36:17.315Z,2.00
2018-12-24T03:37:17.260Z,3.00
2018-12-24T03:38:17.252Z,2.50
2018-12-24T03:39:17.236Z,2.00
2018-12-24T03:40:17.226Z,1.80
2018-12-24T03:41:17.230Z,2.70
2018-12-24T03:42:17.212Z,2.20
2018-12-24T03:43:17.227Z,2.60
2018-12-24T03:44:17.183Z,2.80
2018-12-24T03:45:17.169Z,3.90
2018-12-24T03:46:17.159Z,2.50
2018-12-24T03:47:17.151Z,3.30
2018-12-24T03:48:17.161Z,6.10
2018-12-24T03:49:17.157Z,3.10
2018-12-24T03:50:17.120Z,2.60
2018-12-24T03:51:17.112Z,2.90
2018-12-24T03:52:17.117Z,3.50
2018-12-24T03:53:17.088Z,2.60
2018-12-24T03:54:17.070Z,3.10
2018-12-24T03:55:17.062Z,2.70
2018-12-24T03:56:17.054Z,4.00
2018-12-24T03:57:17.073Z,4.40
2018-12-24T03:58:17.052Z,2.90
2018-12-24T03:59:17.042Z,3.00
2018-12-24T04:00:17.009Z,3.70
2018-12-24T04:01:16.992Z,3.10
2018-12-24T04:02:17.010Z,3.10
2018-12-24T04:03:16.973Z,3.10
2018-12-24T04:04:17.071Z,2.90
2018-12-24T04:05:16.960Z,3.00
2018-12-24T04:06:16.973Z,2.20
2018-12-24T04:07:16.926Z,2.50
2018-12-24T04:08:16.916Z,2.20
2018-12-24T04:09:16.906Z,2.00
2018-12-24T04:10:16.937Z,1.80
2018-12-24T04:11:16.890Z,1.60
2018-12-24T04:12:16.872Z,2.20
2018-12-24T04:13:22.517Z,2.60
2018-12-24T04:14:17.855Z,2.10
2018-12-24T04:15:16.861Z,1.80
2018-12-24T04:16:16.861Z,1.40
2018-12-24T04:17:16.824Z,1.70
2018-12-24T04:18:16.807Z,1.70
2018-12-24T04:19:16.827Z,1.50
2018-12-24T04:20:16.785Z,1.50
2018-12-24T04:21:16.859Z,1.60
2018-12-24T04:22:16.790Z,1.50
2018-12-24T04:23:16.788Z,1.80
2018-12-24T04:24:16.747Z,1.70
2018-12-24T04:25:16.752Z,2.20
2018-12-24T04:26:16.754Z,2.20
2018-12-24T04:27:16.734Z,1.90
2018-12-24T04:28:16.715Z,2.20
2018-12-24T04:29:16.813Z,3.40
2018-12-24T04:30:16.675Z,2.50
2018-12-24T04:31:16.684Z,1.80
2018-12-24T04:32:16.652Z,2.40
2018-12-24T04:33:16.678Z,2.10
2018-12-24T04:34:16.647Z,2.10
2018-12-24T04:35:16.644Z,2.10
2018-12-24T04:36:16.607Z,2.60
2018-12-24T04:37:16.598Z,2.10
2018-12-24T04:38:16.636Z,2.70
2018-12-24T04:39:16.574Z,2.20
2018-12-24T04:40:16.574Z,2.40
2018-12-24T04:41:16.555Z,2.00
2018-12-24T04:42:16.613Z,2.30
2018-12-24T04:43:16.531Z,1.90
2018-12-24T04:44:16.520Z,2.20
2018-12-24T04:45:16.519Z,2.30
2018-12-24T04:46:16.515Z,2.90
2018-12-24T04:47:16.523Z,2.60
2018-12-24T04:48:16.488Z,2.50
2018-12-24T04:49:16.502Z,3.10
2018-12-24T04:50:16.530Z,4.00
2018-12-24T04:51:16.516Z,3.90
2018-12-24T04:52:16.448Z,4.90
2018-12-24T04:53:16.456Z,3.90
2018-12-24T04:54:16.433Z,3.30
2018-12-24T04:55:16.406Z,4.30
2018-12-24T04:56:16.410Z,4.10
2018-12-24T04:57:16.418Z,3.10
2018-12-24T04:58:16.415Z,3.20
2018-12-24T04:59:16.361Z,4.10
2018-12-24T05:00:16.343Z,3.30
2018-12-24T05:01:16.379Z,5.80
2018-12-24T05:02:16.383Z,5.80
2018-12-24T05:03:16.370Z,4.20
2018-12-24T05:04:16.305Z,3.20
2018-12-24T05:05:16.361Z,4.20
2018-12-24T05:06:16.287Z,4.20
2018-12-24T05:07:16.351Z,4.20
2018-12-24T05:08:16.285Z,2.80
2018-12-24T05:09:16.292Z,2.90
2018-12-24T05:10:16.255Z,3.20
2018-12-24T05:11:16.239Z,4.40
2018-12-24T05:12:16.275Z,3.10
2018-12-24T05:13:16.226Z,3.90
2018-12-24T05:14:16.192Z,3.30
2018-12-24T05:15:16.182Z,3.10
2018-12-24T05:16:16.222Z,2.70
2018-12-24T05:17:16.184Z,4.20
2018-12-24T05:18:16.160Z,3.00
2018-12-24T05:19:16.241Z,3.70
2018-12-24T05:20:16.130Z,4.50
2018-12-24T05:21:16.117Z,5.60
2018-12-24T05:22:16.112Z,4.30
2018-12-24T05:23:16.120Z,4.00
2018-12-24T05:24:16.195Z,5.30
2018-12-24T05:25:16.170Z,3.50
2018-12-24T05:26:16.067Z,4.30
2018-12-24T05:27:16.058Z,4.40
2018-12-24T05:28:16.067Z,4.30
2018-12-24T05:29:16.084Z,5.60
2018-12-24T05:30:16.012Z,4.40
2018-12-24T05:31:16.028Z,4.70
2018-12-24T05:32:16.019Z,5.20
2018-12-24T05:33:15.980Z,3.90
2018-12-24T05:34:15.972Z,4.70
2018-12-24T05:35:15.958Z,4.40
2018-12-24T05:36:15.955Z,4.00
2018-12-24T05:37:15.973Z,3.70
2018-12-24T05:38:15.935Z,3.80
2018-12-24T05:39:15.940Z,2.90
2018-12-24T05:40:15.938Z,3.30
2018-12-24T05:41:15.916Z,2.70
2018-12-24T05:42:15.881Z,2.20
2018-12-24T05:43:15.903Z,2.30
2018-12-24T05:44:15.870Z,2.00
2018-12-24T05:45:15.900Z,1.70
2018-12-24T05:46:15.853Z,2.70
2018-12-24T05:47:16.344Z,2.70
2018-12-24T05:48:15.815Z,3.50
2018-12-24T05:49:15.805Z,2.00
2018-12-24T05:50:15.811Z,2.40
2018-12-24T05:51:15.786Z,1.90
2018-12-24T05:52:15.798Z,2.70
2018-12-24T05:53:15.758Z,2.10
2018-12-24T05:54:15.753Z,2.90
2018-12-24T05:55:15.748Z,4.30
2018-12-24T05:56:15.735Z,2.40
2018-12-24T05:57:15.741Z,2.30
2018-12-24T05:58:15.707Z,1.80
2018-12-24T05:59:15.693Z,1.50
2018-12-24T06:00:15.693Z,1.50
2018-12-24T06:01:15.685Z,1.60
2018-12-24T06:02:15.686Z,1.30
2018-12-24T06:03:15.651Z,1.30
2018-12-24T06:04:15.688Z,1.40
2018-12-24T06:05:15.639Z,1.60
2018-12-24T06:06:15.618Z,1.00
2018-12-24T06:07:15.605Z,2.00
2018-12-24T06:08:15.614Z,1.40
2018-12-24T06:09:15.606Z,1.40
2018-12-24T06:10:15.573Z,1.20
2018-12-24T06:11:15.561Z,0.80
2018-12-24T06:12:15.581Z,1.20
2018-12-24T06:13:15.573Z,0.90
2018-12-24T06:14:15.528Z,0.80
2018-12-24T06:15:15.520Z,1.10
2018-12-24T06:16:15.533Z,1.10
2018-12-24T06:17:15.534Z,1.60
2018-12-24T06:18:15.509Z,1.30
2018-12-24T06:19:15.478Z,1.40
2018-12-24T06:20:15.486Z,1.10
2018-12-24T06:21:15.504Z,0.90
2018-12-24T06:22:15.439Z,1.00
2018-12-24T06:23:15.428Z,1.00
2018-12-24T06:24:15.421Z,1.20
2018-12-24T06:25:15.423Z,1.40
2018-12-24T06:26:15.430Z,1.40
2018-12-24T06:27:15.390Z,1.10
2018-12-24T06:28:15.376Z,1.30
2018-12-24T06:29:15.363Z,0.80
2018-12-24T06:30:15.359Z,1.20
2018-12-24T06:31:15.368Z,1.40
2018-12-24T06:32:15.366Z,1.20
2018-12-24T06:33:15.378Z,1.60
2018-12-24T06:34:15.349Z,1.30
2018-12-24T06:35:15.300Z,1.80
2018-12-24T06:36:15.302Z,1.60
2018-12-24T06:37:15.307Z,3.60
2018-12-24T06:38:15.264Z,1.50
2018-12-24T06:39:15.290Z,1.30
2018-12-24T06:40:15.255Z,1.30
2018-12-24T06:41:15.230Z,2.30
2018-12-24T06:42:15.235Z,1.90
2018-12-24T06:43:15.229Z,1.70
2018-12-24T06:44:15.212Z,1.80
2018-12-24T06:45:15.194Z,1.60
2018-12-24T06:46:15.174Z,1.50
2018-12-24T06:47:15.169Z,2.00
2018-12-24T06:48:15.183Z,2.60
2018-12-24T06:49:15.166Z,2.60
2018-12-24T06:50:15.835Z,1.70
2018-12-24T06:51:15.125Z,2.40
2018-12-24T06:52:15.137Z,3.00
2018-12-24T06:53:15.105Z,2.40
2018-12-24T06:54:15.097Z,2.70
2018-12-24T06:55:15.125Z,2.80
2018-12-24T06:56:15.114Z,4.00
2018-12-24T06:57:15.054Z,3.10
2018-12-24T06:58:15.100Z,2.90
2018-12-24T06:59:15.037Z,2.70
2018-12-24T07:00:15.043Z,5.20
2018-12-24T07:01:15.153Z,3.70
2018-12-24T07:02:15.019Z,2.90
2018-12-24T07:03:15.037Z,3.70
2018-12-24T07:04:14.978Z,4.20
2018-12-24T07:05:14.969Z,3.80
2018-12-24T07:06:14.993Z,4.00
2018-12-24T07:07:15.018Z,4.10
2018-12-24T07:08:15.046Z,4.60
2018-12-24T07:09:14.935Z,4.60
2018-12-24T07:10:14.910Z,4.40
2018-12-24T07:11:14.923Z,4.80
2018-12-24T07:12:14.918Z,4.30
2018-12-24T07:13:14.920Z,4.60
2018-12-24T07:14:15.494Z,3.70
2018-12-24T07:15:14.866Z,5.60
2018-12-24T07:16:14.884Z,3.60
2018-12-24T07:17:14.860Z,4.00
2018-12-24T07:18:14.829Z,3.30
2018-12-24T07:19:14.814Z,3.40
2018-12-24T07:20:14.824Z,3.70
2018-12-24T07:21:14.813Z,2.30
2018-12-24T07:22:14.779Z,3.30
2018-12-24T07:23:14.793Z,3.20
2018-12-24T07:24:14.806Z,3.30
2018-12-24T07:25:14.745Z,3.90
2018-12-24T07:26:14.776Z,2.90
2018-12-24T07:27:14.724Z,2.40
2018-12-24T07:28:14.763Z,2.30
2018-12-24T07:29:14.733Z,3.40
2018-12-24T07:30:14.735Z,2.20
2018-12-24T07:31:14.704Z,2.40
2018-12-24T07:32:14.669Z,3.20
2018-12-24T07:33:14.690Z,4.30
2018-12-24T07:34:14.681Z,2.70
2018-12-24T07:35:14.638Z,3.00
2018-12-24T07:36:14.625Z,3.20
2018-12-24T07:37:14.620Z,2.20
2018-12-24T07:38:14.657Z,2.30
2018-12-24T07:39:14.590Z,2.60
2018-12-24T07:40:14.622Z,2.70
2018-12-24T07:41:14.612Z,2.40
2018-12-24T07:42:14.577Z,3.20
2018-12-24T07:43:14.567Z,2.90
2018-12-24T07:44:14.576Z,3.00
2018-12-24T07:45:14.554Z,3.00
2018-12-24T07:46:14.526Z,2.30
2018-12-24T07:47:14.534Z,2.80
2018-12-24T07:48:14.497Z,2.00
2018-12-24T07:49:14.483Z,2.90
2018-12-24T07:50:14.471Z,2.20
2018-12-24T07:51:14.482Z,2.60
2018-12-24T07:52:14.472Z,3.20
2018-12-24T07:53:14.444Z,3.00
2018-12-24T07:54:14.481Z,2.40
2018-12-24T07:55:14.415Z,2.30
2018-12-24T07:56:14.425Z,2.50
2018-12-24T07:57:14.403Z,2.30
2018-12-24T07:58:14.406Z,2.40
2018-12-24T07:59:14.401Z,3.30
2018-12-24T08:00:14.362Z,2.90
2018-12-24T08:01:14.356Z,3.20
2018-12-24T08:02:14.361Z,2.80
2018-12-24T08:03:14.388Z,2.70
2018-12-24T08:04:14.331Z,2.60
2018-12-24T08:05:14.307Z,2.40
2018-12-24T08:06:14.299Z,3.30
2018-12-24T08:07:14.309Z,2.80
2018-12-24T08:08:14.298Z,2.90
2018-12-24T08:09:14.311Z,3.60
2018-12-24T08:10:14.250Z,3.20
2018-12-24T08:11:14.237Z,3.40
2018-12-24T08:12:14.244Z,3.90
2018-12-24T08:13:14.219Z,3.40
2018-12-24T08:14:14.205Z,5.40
2018-12-24T08:15:14.205Z,3.20
2018-12-24T08:16:14.213Z,4.00
2018-12-24T08:17:14.216Z,3.60
2018-12-24T08:18:14.164Z,4.10
2018-12-24T08:19:14.160Z,4.30
2018-12-24T08:20:14.138Z,4.20
2018-12-24T08:21:14.151Z,4.20
2018-12-24T08:22:14.117Z,3.80
2018-12-24T08:23:14.105Z,4.60
2018-12-24T08:24:14.100Z,4.70
2018-12-24T08:25:14.103Z,4.50
2018-12-24T08:26:14.102Z,5.10
2018-12-24T08:27:14.089Z,5.50
2018-12-24T08:28:14.053Z,4.50
2018-12-24T08:29:14.062Z,4.70
2018-12-24T08:30:14.054Z,4.60
2018-12-24T08:31:14.017Z,5.00
2018-12-24T08:32:14.015Z,4.50
2018-12-24T08:33:14.006Z,6.50
2018-12-24T08:34:13.997Z,5.50
2018-12-24T08:35:13.999Z,4.40
2018-12-24T08:36:13.980Z,5.00
2018-12-24T08:37:13.955Z,4.90
2018-12-24T08:38:15.731Z,4.80
2018-12-24T08:39:13.958Z,5.60
2018-12-24T08:40:13.957Z,6.10
2018-12-24T08:41:13.908Z,6.30
2018-12-24T08:42:13.904Z,5.40
2018-12-24T08:43:13.886Z,6.30
2018-12-24T08:44:13.883Z,6.30
2018-12-24T08:45:13.901Z,7.00
2018-12-24T08:46:13.852Z,6.90
2018-12-24T08:47:13.841Z,7.30
2018-12-24T08:48:13.829Z,6.90
2018-12-24T08:49:13.819Z,6.40
2018-12-24T08:50:13.838Z,6.20
2018-12-24T08:51:13.822Z,6.60
2018-12-24T08:52:13.802Z,7.40
2018-12-24T08:53:13.789Z,6.90
2018-12-24T08:54:13.777Z,6.50
2018-12-24T08:55:13.760Z,7.80
2018-12-24T08:56:14.657Z,6.90
2018-12-24T08:57:13.923Z,5.90
2018-12-24T08:58:13.730Z,6.80
2018-12-24T08:59:13.710Z,6.80
2018-12-24T09:00:13.703Z,5.70
2018-12-24T09:01:13.688Z,6.50
2018-12-24T09:02:13.703Z,8.20
2018-12-24T09:03:13.741Z,7.10
2018-12-24T09:04:13.685Z,7.30
2018-12-24T09:05:13.647Z,6.60
2018-12-24T09:06:13.654Z,7.30
2018-12-24T09:07:13.771Z,7.90
2018-12-24T09:08:13.629Z,9.10
2018-12-24T09:09:13.623Z,7.60
2018-12-24T09:10:13.590Z,7.60
2018-12-24T09:11:13.681Z,7.40
2018-12-24T09:12:13.569Z,8.30
2018-12-24T09:13:13.693Z,8.60
2018-12-24T09:14:13.562Z,9.60
2018-12-24T09:15:13.536Z,9.30
2018-12-24T09:16:13.521Z,9.50
2018-12-24T09:17:13.622Z,8.50
2018-12-24T09:18:13.504Z,8.30
2018-12-24T09:19:13.504Z,7.60
2018-12-24T09:20:13.511Z,8.50
2018-12-24T09:21:13.468Z,9.60
2018-12-24T09:22:13.551Z,8.50
2018-12-24T09:23:13.447Z,9.40
2018-12-24T09:24:13.463Z,10.30
2018-12-24T09:25:13.451Z,9.80
2018-12-24T09:26:13.410Z,8.50
2018-12-24T09:27:13.494Z,8.40
2018-12-24T09:28:13.390Z,8.30
2018-12-24T09:29:13.406Z,6.60
2018-12-24T09:30:13.413Z,6.80
2018-12-24T09:31:13.390Z,9.60
2018-12-24T09:32:13.437Z,8.00
2018-12-24T09:33:13.462Z,7.60
2018-12-24T09:34:13.332Z,7.10
2018-12-24T09:35:13.400Z,7.50
2018-12-24T09:36:13.357Z,6.50
2018-12-24T09:37:13.309Z,7.80
2018-12-24T09:38:13.294Z,7.50
2018-12-24T09:39:13.274Z,8.40
2018-12-24T09:40:13.273Z,6.60
2018-12-24T09:41:13.254Z,7.60
2018-12-24T09:42:13.320Z,8.30
2018-12-24T09:43:13.239Z,7.70
2018-12-24T09:44:13.251Z,8.50
2018-12-24T09:45:13.225Z,6.30
2018-12-24T09:46:13.217Z,6.50
2018-12-24T09:47:13.194Z,6.20
2018-12-24T09:48:13.176Z,6.70
2018-12-24T09:49:13.158Z,7.20
2018-12-24T09:50:13.343Z,6.40
2018-12-24T09:51:13.135Z,5.60
2018-12-24T09:52:13.131Z,5.60
2018-12-24T09:53:13.112Z,7.00
2018-12-24T09:54:13.221Z,6.00
2018-12-24T09:55:13.124Z,5.90
2018-12-24T09:56:13.136Z,5.90
2018-12-24T09:57:13.069Z,6.30
2018-12-24T09:58:13.058Z,5.80
2018-12-24T09:59:13.057Z,5.70
2018-12-24T10:00:13.059Z,5.80
2018-12-24T10:01:13.060Z,6.10
2018-12-24T10:02:13.041Z,4.90
2018-12-24T10:03:13.018Z,6.50
2018-12-24T10:04:13.120Z,6.60
2018-12-24T10:05:13.009Z,5.50
2018-12-24T10:06:13.079Z,6.10
2018-12-24T10:07:12.959Z,5.30
2018-12-24T10:08:13.001Z,5.60
2018-12-24T10:09:12.942Z,5.30
2018-12-24T10:10:13.053Z,6.40
2018-12-24T10:11:13.027Z,5.50
2018-12-24T10:12:12.947Z,4.80
2018-12-24T10:13:12.898Z,5.90
2018-12-24T10:14:13.017Z,6.10
2018-12-24T10:15:12.879Z,6.80
2018-12-24T10:16:12.893Z,6.00
2018-12-24T10:17:12.857Z,5.50
2018-12-24T10:18:12.895Z,6.20
2018-12-24T10:19:12.842Z,5.80
2018-12-24T10:20:12.875Z,5.50
2018-12-24T10:21:12.823Z,5.90
2018-12-24T10:22:12.818Z,6.30
2018-12-24T10:23:12.794Z,6.90
2018-12-24T10:24:12.790Z,6.00
2018-12-24T10:25:12.817Z,6.30
2018-12-24T10:26:12.809Z,6.40
2018-12-24T10:27:12.749Z,7.20
2018-12-24T10:28:12.756Z,5.80
2018-12-24T10:29:12.730Z,6.10
2018-12-24T10:30:12.781Z,5.30
2018-12-24T10:31:12.709Z,6.80
2018-12-24T10:32:12.700Z,5.20
2018-12-24T10:33:12.707Z,5.60
2018-12-24T10:34:12.674Z,6.80
2018-12-24T10:35:12.752Z,6.00
2018-12-24T10:36:12.651Z,6.80
2018-12-24T10:37:12.633Z,5.60
2018-12-24T10:38:12.700Z,6.00
2018-12-24T10:39:12.668Z,5.20
2018-12-24T10:40:12.612Z,6.50
2018-12-24T10:41:12.602Z,7.60
2018-12-24T10:42:12.572Z,7.40
2018-12-24T10:43:12.596Z,7.70
2018-12-24T10:44:12.553Z,6.90
2018-12-24T10:45:16.503Z,6.30
2018-12-24T10:46:12.600Z,7.10
2018-12-24T10:47:12.549Z,7.50
2018-12-24T10:48:12.512Z,6.80
2018-12-24T10:49:12.641Z,6.90
2018-12-24T10:50:12.484Z,7.20
2018-12-24T10:51:12.481Z,7.00
2018-12-24T10:52:12.496Z,7.70
2018-12-24T10:53:12.451Z,7.80
2018-12-24T10:54:12.458Z,7.40
2018-12-24T10:55:12.432Z,7.20
2018-12-24T10:56:12.450Z,9.40
2018-12-24T10:57:12.438Z,7.10
2018-12-24T10:58:12.404Z,7.80
2018-12-24T10:59:12.428Z,7.30
2018-12-24T11:00:12.375Z,7.70
2018-12-24T11:01:12.389Z,10.00
2018-12-24T11:02:12.410Z,8.70
2018-12-24T11:03:12.372Z,8.40
2018-12-24T11:04:12.346Z,8.30
2018-12-24T11:05:12.347Z,6.70
2018-12-24T11:06:12.308Z,8.30
2018-12-24T11:07:12.301Z,6.50
2018-12-24T11:08:12.301Z,7.70
2018-12-24T11:09:12.282Z,6.20
2018-12-24T11:10:12.290Z,6.80
2018-12-24T11:11:12.262Z,6.40
2018-12-24T11:12:12.408Z,7.40
2018-12-24T11:13:12.231Z,6.80
2018-12-24T11:14:12.222Z,7.80
2018-12-24T11:15:12.244Z,5.80
2018-12-24T11:16:12.236Z,5.70
2018-12-24T11:17:12.186Z,6.00
2018-12-24T11:18:12.327Z,5.70
2018-12-24T11:19:12.166Z,6.50
2018-12-24T11:20:12.158Z,6.10
2018-12-24T11:21:12.171Z,6.40
2018-12-24T11:22:12.150Z,6.00
2018-12-24T11:23:12.163Z,7.10
2018-12-24T11:24:12.111Z,6.20
2018-12-24T11:25:12.156Z,6.40
2018-12-24T11:26:12.086Z,5.80
2018-12-24T11:27:12.186Z,5.50
2018-12-24T11:28:12.100Z,4.50
2018-12-24T11:29:12.054Z,3.90
2018-12-24T11:30:12.047Z,4.50
2018-12-24T11:31:12.031Z,5.20
2018-12-24T11:32:12.054Z,3.80
2018-12-24T11:33:12.167Z,4.30
2018-12-24T11:34:12.001Z,3.80
2018-12-24T11:35:11.997Z,4.70
2018-12-24T11:36:11.991Z,5.40
2018-12-24T11:37:12.008Z,5.20
2018-12-24T11:38:11.981Z,4.40
2018-12-24T11:39:11.989Z,4.50
2018-12-24T11:40:11.933Z,5.40
2018-12-24T11:41:11.922Z,5.00
2018-12-24T11:42:11.973Z,4.40
2018-12-24T11:43:11.925Z,4.90
2018-12-24T11:44:11.925Z,4.70
2018-12-24T11:45:11.876Z,4.60
2018-12-24T11:46:11.869Z,5.30
2018-12-24T11:47:11.884Z,5.60
2018-12-24T11:48:11.875Z,5.10
2018-12-24T11:49:11.861Z,5.60
2018-12-24T11:50:11.934Z,4.70
2018-12-24T11:51:11.872Z,5.30
2018-12-24T11:52:11.804Z,5.00
2018-12-24T11:53:11.803Z,5.00
2018-12-24T11:54:11.781Z,5.10
2018-12-24T11:55:11.796Z,4.40
2018-12-24T11:56:11.796Z,5.00
2018-12-24T11:57:11.745Z,4.10
2018-12-24T11:58:13.317Z,5.50
2018-12-24T11:59:11.754Z,5.20
2018-12-24T12:00:11.712Z,5.40
2018-12-24T12:01:11.732Z,4.70
2018-12-24T12:02:11.695Z,4.90
2018-12-24T12:03:12.778Z,5.70
2018-12-24T12:04:11.710Z,5.50
2018-12-24T12:05:11.752Z,6.40
2018-12-24T12:06:19.532Z,5.70
2018-12-24T12:07:12.659Z,6.20
2018-12-24T12:08:11.653Z,6.30
2018-12-24T12:09:11.614Z,5.10
2018-12-24T12:10:11.694Z,5.60
2018-12-24T12:11:11.616Z,5.80
2018-12-24T12:12:11.602Z,5.20
2018-12-24T12:13:11.577Z,6.20
2018-12-24T12:14:11.669Z,5.10
2018-12-24T12:15:13.044Z,5.20
2018-12-24T12:16:11.534Z,5.10
2018-12-24T12:17:11.579Z,5.50
2018-12-24T12:18:11.513Z,7.20
2018-12-24T12:19:11.538Z,6.00
2018-12-24T12:20:11.493Z,6.10
2018-12-24T12:21:11.482Z,6.40
2018-12-24T12:22:11.542Z,6.70
2018-12-24T12:23:11.476Z,6.00
2018-12-24T12:24:11.485Z,4.80
2018-12-24T12:25:11.533Z,5.70
2018-12-24T12:26:11.428Z,5.30
2018-12-24T12:27:11.576Z,5.40
2018-12-24T12:28:11.407Z,5.10
2018-12-24T12:29:11.476Z,6.20
2018-12-24T12:30:11.405Z,5.10
2018-12-24T12:31:11.395Z,7.10
2018-12-24T12:32:11.458Z,5.00
2018-12-24T12:33:11.586Z,5.70
2018-12-24T12:34:11.380Z,6.40
2018-12-24T12:35:11.328Z,7.60
2018-12-24T12:36:11.318Z,5.10
2018-12-24T12:37:11.333Z,6.00
2018-12-24T12:38:11.293Z,5.80
2018-12-24T12:39:11.312Z,7.60
2018-12-24T12:40:11.418Z,10.50
2018-12-24T12:41:11.259Z,8.10
2018-12-24T12:42:11.411Z,7.10
2018-12-24T12:43:11.262Z,8.30
2018-12-24T12:44:11.308Z,8.00
2018-12-24T12:45:11.217Z,8.70
2018-12-24T12:46:11.207Z,7.20
2018-12-24T12:47:11.197Z,6.90
2018-12-24T12:48:11.200Z,6.80
2018-12-24T12:49:11.190Z,5.50
2018-12-24T12:50:11.165Z,6.80
2018-12-24T12:51:11.172Z,7.50
2018-12-24T12:52:11.147Z,6.80
2018-12-24T12:53:11.129Z,4.80
2018-12-24T12:54:11.242Z,5.50
2018-12-24T12:55:11.105Z,5.40
2018-12-24T12:56:11.162Z,5.40
2018-12-24T12:57:11.184Z,4.60
2018-12-24T12:58:11.074Z,4.50
2018-12-24T12:59:11.089Z,4.00
2018-12-24T13:00:11.060Z,3.10
2018-12-24T13:01:11.068Z,4.20
2018-12-24T13:02:11.029Z,3.80
2018-12-24T13:03:11.019Z,3.60
2018-12-24T13:04:11.125Z,4.00
2018-12-24T13:05:11.052Z,3.80
2018-12-24T13:06:11.047Z,4.00
2018-12-24T13:07:10.974Z,3.80
2018-12-24T13:08:11.836Z,4.60
2018-12-24T13:09:10.984Z,3.70
2018-12-24T13:10:11.074Z,3.80
2018-12-24T13:11:10.979Z,4.60
2018-12-24T13:12:10.926Z,3.90
2018-12-24T13:13:10.923Z,4.20
2018-12-24T13:14:10.933Z,3.80
2018-12-24T13:15:10.887Z,4.50
2018-12-24T13:16:10.902Z,4.00
2018-12-24T13:17:10.863Z,3.20
2018-12-24T13:18:10.863Z,3.10